Playa Giron, Cuba
Current Conditions -  °F | °C
As of 5:05 AM on Friday 28 Nov 2014 (Local Time) from MUCL Reporting Station
NA  
Wind Chill: 72°   Ceiling: NA
Heat Index: 72°   Visibility: NA
Dew Point: 57°   Wind: 22mph
Humidity: 60%   Direction: 20°NNE
Pressure: 30.06"   Gusts: NA
Location:  22.07°N, 81.04°W
Report Text: MUCL 280905Z AUTO 02019KT 22/14 Q1018
Loading
Personal Weather Stations






























Interactive Weather Map New forecast layout! Learn more

10-Day Weather Forecast

Advertisements
Track Severe Weather on mobile